Time;durP1;ratioP1;P1;durP2;ratioP2;P2;SDS_P1;SDS_P2;PMS_P1;PMS_P2;Temp;Humidity;BMP_temperature;BMP_pressure;BME280_temperature;BME280_humidity;BME280_pressure;Samples;Min_cycle;Max_cycle;Signal;HPM_P1;HPM_P2
2022/02/18 00:00:18;;;;;;;13.95;3.25;;;;;;;;;;5009248;28;20030;-61
2022/02/18 00:02:44;;;;;;;8.25;2.40;;;;;;;;;;5008032;28;20061;-61
2022/02/18 00:05:11;;;;;;;8.32;2.70;;;;;;;;;;5009025;28;20113;-61
2022/02/18 00:07:37;;;;;;;9.82;2.75;;;;;;;;;;5008878;28;20026;-61
2022/02/18 00:10:03;;;;;;;9.95;3.22;;;;;;;;;;5009308;28;20045;-61
2022/02/18 00:12:29;;;;;;;8.02;2.75;;;;;;;;;;5010222;28;20054;-62
2022/02/18 00:14:55;;;;;;;11.60;2.72;;;;;;;;;;5012807;28;20140;-62
2022/02/18 00:17:21;;;;;;;9.05;2.55;;;;;;;;;;5012326;28;20133;-60
2022/02/18 00:19:47;;;;;;;8.25;2.63;;;;;;;;;;5012775;28;20038;-61
2022/02/18 00:22:14;;;;;;;9.20;2.47;;;;;;;;;;5013122;28;20109;-60
2022/02/18 00:24:40;;;;;;;12.10;3.20;;;;;;;;;;5013511;28;20030;-61
2022/02/18 00:27:06;;;;;;;8.20;2.70;;;;;;;;;;5013096;28;20072;-60
2022/02/18 00:29:32;;;;;;;12.88;2.45;;;;;;;;;;5012810;28;20121;-60
2022/02/18 00:31:58;;;;;;;11.82;3.00;;;;;;;;;;5013092;28;20104;-60
2022/02/18 00:34:24;;;;;;;10.30;2.63;;;;;;;;;;5012539;28;20080;-59
2022/02/18 00:36:50;;;;;;;10.07;2.30;;;;;;;;;;5012770;28;20128;-59
2022/02/18 00:39:16;;;;;;;7.28;1.90;;;;;;;;;;5012130;28;20029;-60
2022/02/18 00:41:43;;;;;;;9.32;2.28;;;;;;;;;;5012802;28;20053;-60
2022/02/18 00:44:09;;;;;;;10.60;2.47;;;;;;;;;;5012350;28;20014;-60
2022/02/18 00:46:35;;;;;;;8.75;2.72;;;;;;;;;;5012046;28;20064;-60
2022/02/18 00:49:01;;;;;;;9.50;2.22;;;;;;;;;;5018958;28;20040;-60
2022/02/18 00:51:27;;;;;;;9.23;2.25;;;;;;;;;;5012661;28;20026;-61
2022/02/18 00:53:53;;;;;;;7.28;2.75;;;;;;;;;;5012286;28;20018;-60
2022/02/18 00:56:19;;;;;;;6.03;1.77;;;;;;;;;;5012244;28;20117;-61
2022/02/18 00:58:45;;;;;;;7.68;2.42;;;;;;;;;;5012395;28;20064;-61
2022/02/18 01:01:12;;;;;;;7.05;1.85;;;;;;;;;;5011719;28;20054;-61
2022/02/18 01:03:38;;;;;;;7.43;2.58;;;;;;;;;;5006492;28;20034;-61
2022/02/18 01:06:04;;;;;;;7.00;2.55;;;;;;;;;;5011401;28;20022;-61
2022/02/18 01:08:31;;;;;;;7.10;2.20;;;;;;;;;;5011661;28;20034;-61
2022/02/18 01:10:57;;;;;;;8.35;2.63;;;;;;;;;;5009669;28;20443;-61
2022/02/18 01:13:24;;;;;;;7.50;2.50;;;;;;;;;;5012221;28;20120;-61
2022/02/18 01:15:50;;;;;;;9.23;3.05;;;;;;;;;;5009922;28;20053;-60
2022/02/18 01:18:16;;;;;;;8.32;2.17;;;;;;;;;;5010459;28;20088;-60
2022/02/18 01:20:42;;;;;;;8.35;2.42;;;;;;;;;;5011703;28;20044;-60
2022/02/18 01:23:08;;;;;;;7.40;2.28;;;;;;;;;;5011827;28;20368;-61
2022/02/18 01:25:34;;;;;;;6.50;2.15;;;;;;;;;;5011116;28;20054;-61
2022/02/18 01:28:00;;;;;;;7.22;2.35;;;;;;;;;;5011231;28;20033;-61
2022/02/18 01:30:27;;;;;;;7.05;2.25;;;;;;;;;;5011621;28;20467;-61
2022/02/18 01:32:53;;;;;;;7.80;2.00;;;;;;;;;;5009780;28;20549;-60
2022/02/18 01:35:20;;;;;;;8.55;2.22;;;;;;;;;;4999035;28;20098;-60
2022/02/18 01:37:46;;;;;;;4.28;1.50;;;;;;;;;;5007132;28;20038;-60
2022/02/18 01:40:14;;;;;;;8.55;2.13;;;;;;;;;;4996970;28;20500;-60
2022/02/18 01:42:40;;;;;;;7.32;2.00;;;;;;;;;;5000241;28;20076;-60
2022/02/18 01:45:07;;;;;;;10.65;2.75;;;;;;;;;;5011468;28;20120;-60
2022/02/18 01:47:33;;;;;;;8.25;1.75;;;;;;;;;;5011131;28;20080;-60
2022/02/18 01:49:59;;;;;;;8.55;2.15;;;;;;;;;;5010932;28;20128;-60
2022/02/18 01:52:31;;;;;;;5.40;1.60;;;;;;;;;;5010218;28;20105;-60
2022/02/18 01:54:57;;;;;;;8.43;2.00;;;;;;;;;;5011020;28;20034;-60
2022/02/18 01:57:23;;;;;;;8.57;2.28;;;;;;;;;;5010475;28;20034;-60
2022/02/18 01:59:49;;;;;;;6.63;1.80;;;;;;;;;;5011097;28;20129;-60
2022/02/18 02:02:15;;;;;;;7.10;1.92;;;;;;;;;;5010565;28;20017;-60
2022/02/18 02:04:44;;;;;;;6.55;1.88;;;;;;;;;;5010691;28;20037;-59
2022/02/18 02:07:10;;;;;;;8.43;2.20;;;;;;;;;;5009039;28;20034;-60
2022/02/18 02:09:36;;;;;;;8.57;2.00;;;;;;;;;;5008337;28;20030;-61
2022/02/18 02:12:03;;;;;;;6.90;1.95;;;;;;;;;;5002629;28;20030;-61
2022/02/18 02:14:29;;;;;;;6.47;2.58;;;;;;;;;;5010946;28;20049;-60
2022/02/18 02:16:55;;;;;;;4.90;1.90;;;;;;;;;;5009539;28;20412;-60
2022/02/18 02:19:21;;;;;;;7.18;2.28;;;;;;;;;;5010943;28;20188;-60
2022/02/18 02:21:50;;;;;;;6.28;1.83;;;;;;;;;;5010753;28;20551;-61
2022/02/18 02:24:16;;;;;;;6.05;1.80;;;;;;;;;;5011017;28;20037;-60
2022/02/18 02:26:42;;;;;;;8.00;2.17;;;;;;;;;;5009996;28;20034;-60
2022/02/18 02:29:11;;;;;;;5.15;1.80;;;;;;;;;;5010752;28;20073;-61
2022/02/18 02:31:37;;;;;;;7.07;2.03;;;;;;;;;;5005444;28;20031;-61
2022/02/18 02:34:03;;;;;;;5.53;1.80;;;;;;;;;;5010524;28;20026;-61
2022/02/18 02:36:30;;;;;;;7.95;1.77;;;;;;;;;;5009656;28;20107;-61
2022/02/18 02:38:56;;;;;;;6.50;1.85;;;;;;;;;;5010403;28;20056;-61
2022/02/18 02:41:25;;;;;;;9.02;1.98;;;;;;;;;;5010997;28;20083;-62
2022/02/18 02:43:51;;;;;;;7.95;2.08;;;;;;;;;;5010237;28;20507;-62
2022/02/18 02:46:17;;;;;;;6.40;1.80;;;;;;;;;;5010154;28;20879;-62
2022/02/18 02:48:43;;;;;;;8.75;2.00;;;;;;;;;;5009778;28;20032;-62
2022/02/18 02:51:10;;;;;;;4.88;1.90;;;;;;;;;;5010006;28;20108;-62
2022/02/18 02:53:39;;;;;;;5.70;1.60;;;;;;;;;;5010243;28;20487;-62
2022/02/18 02:56:05;;;;;;;7.25;2.17;;;;;;;;;;5010123;28;20084;-62
2022/02/18 02:58:31;;;;;;;6.10;1.80;;;;;;;;;;5010082;28;20400;-62
2022/02/18 03:00:58;;;;;;;7.75;2.22;;;;;;;;;;5010172;28;20026;-61
2022/02/18 03:03:24;;;;;;;5.50;1.90;;;;;;;;;;5009234;28;20117;-62
2022/02/18 03:05:50;;;;;;;8.65;2.20;;;;;;;;;;5009661;28;20038;-62
2022/02/18 03:08:16;;;;;;;6.78;1.80;;;;;;;;;;5009741;28;20563;-61
2022/02/18 03:11:14;;;;;;;6.78;1.70;;;;;;;;;;5009862;28;20498;-61
2022/02/18 03:13:30;;;;;;;5.38;1.80;;;;;;;;;;4995927;28;20048;-60
2022/02/18 03:15:56;;;;;;;8.50;1.75;;;;;;;;;;5009469;28;20061;-61
2022/02/18 03:18:23;;;;;;;6.00;2.05;;;;;;;;;;5009599;28;20026;-61
2022/02/18 03:20:49;;;;;;;8.20;2.00;;;;;;;;;;5009293;28;20030;-61
2022/02/18 03:23:15;;;;;;;6.43;1.90;;;;;;;;;;5009615;28;20129;-60
2022/02/18 03:25:41;;;;;;;5.78;1.70;;;;;;;;;;5006009;28;20045;-60
2022/02/18 03:28:07;;;;;;;9.25;2.47;;;;;;;;;;5009635;28;20099;-60
2022/02/18 03:30:33;;;;;;;8.55;1.98;;;;;;;;;;5009814;28;20031;-60
2022/02/18 03:33:00;;;;;;;7.38;2.35;;;;;;;;;;5009507;28;20164;-60
2022/02/18 03:35:26;;;;;;;7.32;1.75;;;;;;;;;;5000146;28;20042;-60
2022/02/18 03:37:53;;;;;;;6.70;1.50;;;;;;;;;;5009312;28;20032;-60
2022/02/18 03:40:19;;;;;;;7.28;2.33;;;;;;;;;;5008885;28;20450;-61
2022/02/18 03:42:46;;;;;;;7.45;2.00;;;;;;;;;;5009415;28;20029;-60
2022/02/18 03:45:13;;;;;;;8.68;1.95;;;;;;;;;;5009259;28;20034;-62
2022/02/18 03:47:39;;;;;;;5.80;1.73;;;;;;;;;;5014923;28;20116;-61
2022/02/18 03:50:05;;;;;;;7.22;1.80;;;;;;;;;;5016933;28;20022;-59
2022/02/18 03:52:31;;;;;;;7.00;2.08;;;;;;;;;;5009827;28;20452;-58
2022/02/18 03:54:57;;;;;;;5.65;1.85;;;;;;;;;;5007749;28;20656;-60
2022/02/18 03:57:24;;;;;;;7.22;1.58;;;;;;;;;;5009175;28;20026;-60
2022/02/18 03:59:50;;;;;;;5.80;1.92;;;;;;;;;;5009022;28;20033;-60
2022/02/18 04:02:16;;;;;;;5.22;2.05;;;;;;;;;;5008733;28;20022;-61
2022/02/18 04:04:42;;;;;;;6.70;1.73;;;;;;;;;;5009047;28;20041;-61
2022/02/18 04:07:11;;;;;;;8.18;2.22;;;;;;;;;;5009205;28;20025;-61
2022/02/18 04:09:37;;;;;;;4.93;1.40;;;;;;;;;;5009285;28;20038;-61
2022/02/18 04:12:03;;;;;;;7.60;2.25;;;;;;;;;;5009126;28;20856;-60
2022/02/18 04:14:29;;;;;;;5.35;1.55;;;;;;;;;;5009241;28;20133;-61
2022/02/18 04:16:55;;;;;;;7.22;2.00;;;;;;;;;;5009159;28;20113;-61
2022/02/18 04:19:22;;;;;;;7.70;1.60;;;;;;;;;;5005972;28;20058;-61
2022/02/18 04:21:48;;;;;;;7.55;1.77;;;;;;;;;;5004493;28;20065;-61
2022/02/18 04:24:15;;;;;;;5.70;1.60;;;;;;;;;;5009250;28;20117;-61
2022/02/18 04:26:41;;;;;;;7.70;1.90;;;;;;;;;;5009106;28;20092;-61
2022/02/18 04:29:09;;;;;;;6.78;1.70;;;;;;;;;;5008730;28;20148;-61
2022/02/18 04:31:35;;;;;;;5.90;1.52;;;;;;;;;;5009366;28;20064;-61
2022/02/18 04:34:01;;;;;;;7.15;1.55;;;;;;;;;;5008981;28;20053;-60
2022/02/18 04:36:27;;;;;;;5.88;2.22;;;;;;;;;;5008845;28;20038;-61
2022/02/18 04:38:54;;;;;;;8.27;2.13;;;;;;;;;;5009397;28;20041;-61
2022/02/18 04:41:21;;;;;;;5.53;1.45;;;;;;;;;;5008725;28;20057;-61
2022/02/18 04:43:47;;;;;;;8.45;2.15;;;;;;;;;;5008909;28;20041;-59
2022/02/18 04:46:13;;;;;;;7.93;1.90;;;;;;;;;;5008667;28;20022;-60
2022/02/18 04:48:39;;;;;;;6.22;2.17;;;;;;;;;;5003392;28;20454;-60
2022/02/18 04:51:05;;;;;;;6.82;1.77;;;;;;;;;;5008063;28;21113;-60
2022/02/18 04:53:36;;;;;;;7.32;1.65;;;;;;;;;;5008475;28;20018;-60
2022/02/18 04:56:04;;;;;;;8.48;2.17;;;;;;;;;;5008438;28;20068;-59
2022/02/18 04:58:30;;;;;;;5.22;1.70;;;;;;;;;;5008750;28;20034;-60
2022/02/18 05:00:56;;;;;;;5.18;1.83;;;;;;;;;;5011873;28;20049;-60
2022/02/18 05:03:23;;;;;;;5.38;1.55;;;;;;;;;;5010394;28;20038;-61
2022/02/18 05:05:49;;;;;;;8.48;1.77;;;;;;;;;;5011896;28;20388;-61
2022/02/18 05:08:15;;;;;;;9.25;1.95;;;;;;;;;;5011618;28;20546;-61
2022/02/18 05:10:41;;;;;;;5.95;2.22;;;;;;;;;;5012174;28;20436;-61
2022/02/18 05:13:07;;;;;;;8.25;2.92;;;;;;;;;;5012026;28;20113;-61
2022/02/18 05:15:33;;;;;;;6.40;2.28;;;;;;;;;;5011681;28;20080;-61
2022/02/18 05:18:03;;;;;;;13.10;2.25;;;;;;;;;;5011293;28;20057;-61
2022/02/18 05:20:29;;;;;;;9.48;2.08;;;;;;;;;;5012025;28;20117;-61
2022/02/18 05:22:55;;;;;;;6.00;2.10;;;;;;;;;;5011782;28;20026;-60
2022/02/18 05:25:21;;;;;;;8.05;2.10;;;;;;;;;;5011885;28;20026;-60
2022/02/18 05:27:47;;;;;;;10.48;2.67;;;;;;;;;;5011374;28;20029;-60
2022/02/18 05:30:14;;;;;;;7.13;2.10;;;;;;;;;;5011741;28;20054;-60
2022/02/18 05:32:40;;;;;;;9.02;1.88;;;;;;;;;;5011686;28;20109;-60
2022/02/18 05:35:06;;;;;;;10.23;3.00;;;;;;;;;;5011080;28;20113;-61
2022/02/18 05:37:32;;;;;;;7.65;1.83;;;;;;;;;;5011794;28;20030;-60
2022/02/18 05:39:58;;;;;;;11.10;2.33;;;;;;;;;;5011461;28;20026;-62
2022/02/18 05:42:24;;;;;;;9.90;2.70;;;;;;;;;;5011599;28;20551;-61
2022/02/18 05:44:50;;;;;;;9.90;2.17;;;;;;;;;;5010913;28;20030;-60
2022/02/18 05:47:16;;;;;;;9.48;2.58;;;;;;;;;;5010168;28;20049;-60
2022/02/18 05:49:42;;;;;;;9.07;2.35;;;;;;;;;;5011479;28;20450;-60
2022/02/18 05:52:08;;;;;;;9.85;2.50;;;;;;;;;;5011218;28;20026;-60
2022/02/18 05:54:34;;;;;;;9.25;2.30;;;;;;;;;;5011059;28;20109;-60
2022/02/18 05:57:00;;;;;;;8.40;2.58;;;;;;;;;;5011643;28;20117;-60
2022/02/18 05:59:26;;;;;;;11.35;2.92;;;;;;;;;;5011377;28;20030;-60
2022/02/18 06:01:52;;;;;;;10.35;2.35;;;;;;;;;;5011141;28;20057;-61
2022/02/18 06:04:18;;;;;;;11.07;2.42;;;;;;;;;;5000405;28;20075;-61
2022/02/18 06:06:45;;;;;;;12.43;3.25;;;;;;;;;;5010964;28;20026;-61
2022/02/18 06:09:11;;;;;;;9.13;2.95;;;;;;;;;;5011153;28;20124;-61
2022/02/18 06:11:37;;;;;;;11.70;2.70;;;;;;;;;;5011018;28;20029;-61
2022/02/18 06:14:04;;;;;;;10.88;2.70;;;;;;;;;;5009896;28;20029;-61
2022/02/18 06:16:30;;;;;;;12.10;3.10;;;;;;;;;;5010144;28;20049;-61
2022/02/18 06:18:56;;;;;;;9.75;2.63;;;;;;;;;;5010428;28;20101;-58
2022/02/18 06:21:22;;;;;;;14.85;3.30;;;;;;;;;;5007534;28;20041;-61
2022/02/18 11:32:37;;;;;;;5.93;1.50;;;;;;;;;;5102777;27;20412;-62
2022/02/18 11:35:16;;;;;;;7.05;1.70;;;;;;;;;;5094250;28;20045;-62
2022/02/18 11:37:55;;;;;;;6.25;2.05;;;;;;;;;;5092667;28;20041;-62
2022/02/18 11:40:21;;;;;;;4.40;1.40;;;;;;;;;;5090509;28;20076;-61
2022/02/18 11:42:47;;;;;;;7.43;2.05;;;;;;;;;;5095816;28;20040;-62
2022/02/18 11:45:15;;;;;;;5.97;1.60;;;;;;;;;;5092406;28;20104;-62
2022/02/18 11:47:41;;;;;;;4.93;1.30;;;;;;;;;;5095747;28;20096;-62
2022/02/18 11:50:12;;;;;;;3.30;1.05;;;;;;;;;;5102260;28;20024;-62
2022/02/18 11:52:56;;;;;;;6.57;1.48;;;;;;;;;;5079613;28;20052;-63
2022/02/18 11:55:33;;;;;;;5.20;1.55;;;;;;;;;;5082796;28;20444;-63
2022/02/18 11:58:07;;;;;;;5.82;1.45;;;;;;;;;;5088238;28;20093;-63
2022/02/18 12:00:38;;;;;;;3.78;1.50;;;;;;;;;;5101260;28;20630;-63
2022/02/18 12:03:11;;;;;;;6.90;1.50;;;;;;;;;;5083536;28;20028;-63
2022/02/18 12:05:59;;;;;;;7.90;1.58;;;;;;;;;;5082478;28;20470;-63
2022/02/18 12:08:29;;;;;;;6.22;1.83;;;;;;;;;;5076318;28;20059;-63
2022/02/18 12:10:55;;;;;;;7.65;1.30;;;;;;;;;;5084325;28;20028;-63
2022/02/18 12:13:21;;;;;;;6.85;1.83;;;;;;;;;;5084442;28;20016;-62
2022/02/18 12:15:48;;;;;;;8.45;1.80;;;;;;;;;;5084140;28;20119;-63
2022/02/18 12:18:20;;;;;;;5.03;1.40;;;;;;;;;;5083538;28;20086;-63
2022/02/18 12:20:46;;;;;;;7.28;1.73;;;;;;;;;;5085555;28;20413;-64
2022/02/18 12:23:22;;;;;;;4.18;1.33;;;;;;;;;;5084238;28;20025;-63
2022/02/18 12:25:48;;;;;;;4.65;1.67;;;;;;;;;;5084371;28;20032;-63
2022/02/18 12:28:17;;;;;;;6.80;1.50;;;;;;;;;;5097663;28;20138;-63
2022/02/18 12:30:55;;;;;;;4.20;1.27;;;;;;;;;;5089848;28;20048;-63
2022/02/18 12:33:23;;;;;;;5.95;1.42;;;;;;;;;;5072603;28;20060;-62
2022/02/18 12:35:49;;;;;;;5.22;1.13;;;;;;;;;;5064267;28;20024;-63
2022/02/18 12:38:15;;;;;;;5.10;1.40;;;;;;;;;;5078159;28;20035;-63
2022/02/18 12:40:42;;;;;;;5.75;1.17;;;;;;;;;;5083873;28;20500;-62
2022/02/18 12:43:14;;;;;;;5.90;1.20;;;;;;;;;;5074937;28;20028;-62
2022/02/18 12:45:42;;;;;;;6.40;1.33;;;;;;;;;;5068384;28;20681;-62
2022/02/18 12:48:09;;;;;;;3.45;1.38;;;;;;;;;;5064393;28;20541;-61
2022/02/18 12:50:36;;;;;;;4.00;1.30;;;;;;;;;;5069266;28;20502;-63
2022/02/18 12:53:03;;;;;;;10.07;1.50;;;;;;;;;;5069751;28;20039;-62
2022/02/18 12:55:31;;;;;;;5.45;1.30;;;;;;;;;;5070173;28;20027;-62
2022/02/18 12:57:57;;;;;;;5.00;1.15;;;;;;;;;;5056387;28;20020;-63
2022/02/18 13:00:25;;;;;;;3.20;0.93;;;;;;;;;;5069412;28;20017;-63
2022/02/18 13:02:52;;;;;;;6.35;1.45;;;;;;;;;;5066021;28;20111;-63
2022/02/18 13:05:19;;;;;;;3.70;0.80;;;;;;;;;;5070024;28;20060;-63
2022/02/18 13:07:45;;;;;;;8.13;1.30;;;;;;;;;;5070020;28;20024;-63
2022/02/18 13:10:16;;;;;;;5.00;1.00;;;;;;;;;;5065987;28;20039;-62
2022/02/18 13:12:44;;;;;;;3.15;0.80;;;;;;;;;;5070170;28;20031;-62
2022/02/18 13:15:12;;;;;;;4.85;1.02;;;;;;;;;;5069655;28;20478;-61
2022/02/18 13:17:39;;;;;;;4.25;1.20;;;;;;;;;;5070343;28;20487;-61
2022/02/18 13:20:05;;;;;;;5.05;0.80;;;;;;;;;;5070572;28;20115;-62
2022/02/18 13:22:35;;;;;;;2.72;0.93;;;;;;;;;;5070611;28;20086;-62
2022/02/18 13:25:22;;;;;;;3.53;1.20;;;;;;;;;;5069312;28;20363;-62
2022/02/18 13:27:49;;;;;;;4.30;1.08;;;;;;;;;;5059370;28;20025;-61
2022/02/18 13:30:23;;;;;;;4.68;1.33;;;;;;;;;;5069744;28;20027;-63
2022/02/18 13:33:00;;;;;;;5.90;1.48;;;;;;;;;;5066406;28;20032;-62
2022/02/18 13:35:26;;;;;;;7.60;0.85;;;;;;;;;;5073068;28;20128;-63
2022/02/18 13:37:54;;;;;;;9.63;1.00;;;;;;;;;;5087154;28;20107;-62
2022/02/18 13:40:20;;;;;;;5.07;0.98;;;;;;;;;;5075478;28;20086;-62
2022/02/18 13:42:53;;;;;;;2.22;0.80;;;;;;;;;;5069700;28;20025;-61
2022/02/18 13:45:19;;;;;;;5.88;0.93;;;;;;;;;;5069805;28;20037;-61
2022/02/18 13:47:46;;;;;;;9.10;1.17;;;;;;;;;;5076857;28;20050;-61
2022/02/18 13:50:12;;;;;;;7.78;1.20;;;;;;;;;;5079182;28;20056;-61
2022/02/18 13:52:39;;;;;;;3.90;0.95;;;;;;;;;;5069630;28;20504;-62
2022/02/18 13:55:05;;;;;;;4.25;0.98;;;;;;;;;;5068210;28;20351;-61
2022/02/18 13:57:32;;;;;;;2.72;0.90;;;;;;;;;;5065999;28;20033;-61
2022/02/18 13:59:58;;;;;;;6.22;1.20;;;;;;;;;;5065225;28;20071;-62
2022/02/18 14:02:24;;;;;;;3.42;1.27;;;;;;;;;;5069410;28;20032;-62
2022/02/18 14:04:51;;;;;;;5.15;0.80;;;;;;;;;;5063972;28;20135;-62
2022/02/18 14:07:18;;;;;;;4.45;1.13;;;;;;;;;;5069584;28;20103;-62
2022/02/18 14:09:46;;;;;;;6.47;0.95;;;;;;;;;;5069475;28;20063;-62
2022/02/18 14:12:15;;;;;;;3.67;0.90;;;;;;;;;;5069158;28;20039;-61
2022/02/18 14:14:41;;;;;;;3.67;1.10;;;;;;;;;;5069761;28;20032;-61
2022/02/18 14:17:07;;;;;;;6.13;1.42;;;;;;;;;;5069315;28;20029;-61
2022/02/18 14:19:43;;;;;;;3.40;0.90;;;;;;;;;;5069450;28;20028;-62
2022/02/18 14:22:10;;;;;;;5.32;1.05;;;;;;;;;;5068814;28;20032;-63
2022/02/18 14:24:38;;;;;;;4.38;1.10;;;;;;;;;;5069157;28;20363;-62
2022/02/18 14:27:06;;;;;;;7.50;1.75;;;;;;;;;;5068846;28;20028;-63
2022/02/18 14:29:32;;;;;;;8.13;1.60;;;;;;;;;;5069188;28;20064;-63
2022/02/18 14:31:58;;;;;;;6.63;1.20;;;;;;;;;;5069039;28;20506;-63
2022/02/18 14:34:26;;;;;;;5.95;1.35;;;;;;;;;;5069116;28;20059;-63
2022/02/18 14:37:03;;;;;;;7.65;1.60;;;;;;;;;;5069229;28;20021;-63
2022/02/18 14:39:38;;;;;;;8.10;1.88;;;;;;;;;;5069274;28;20025;-63
2022/02/18 14:42:06;;;;;;;10.60;1.60;;;;;;;;;;5068829;28;20032;-63
2022/02/18 14:44:45;;;;;;;6.13;1.65;;;;;;;;;;5069631;28;20040;-62
2022/02/18 14:47:11;;;;;;;7.23;1.47;;;;;;;;;;5070770;28;20017;-62
2022/02/18 14:49:38;;;;;;;10.57;1.40;;;;;;;;;;5074143;28;20127;-63
2022/02/18 14:52:04;;;;;;;10.60;1.80;;;;;;;;;;5068525;28;20366;-63
2022/02/18 14:54:30;;;;;;;11.20;1.75;;;;;;;;;;5068720;28;20056;-62
2022/02/18 14:56:58;;;;;;;13.95;1.95;;;;;;;;;;5068553;28;20055;-62
2022/02/18 14:59:24;;;;;;;13.55;2.25;;;;;;;;;;5069015;28;20431;-61
2022/02/18 15:01:50;;;;;;;8.77;1.70;;;;;;;;;;5068671;28;20028;-61
2022/02/18 15:04:16;;;;;;;10.88;1.65;;;;;;;;;;5068768;28;20048;-61
2022/02/18 15:06:42;;;;;;;7.20;1.48;;;;;;;;;;5068781;28;20681;-61
2022/02/18 15:09:09;;;;;;;10.48;1.90;;;;;;;;;;5068536;28;20103;-61
2022/02/18 15:11:36;;;;;;;7.82;2.40;;;;;;;;;;5068220;28;20425;-62
2022/02/18 15:14:02;;;;;;;14.20;2.05;;;;;;;;;;5069916;28;20490;-61
2022/02/18 15:16:28;;;;;;;11.00;1.70;;;;;;;;;;5075810;28;20032;-62
2022/02/18 15:18:54;;;;;;;6.32;1.70;;;;;;;;;;5060445;28;20622;-63
2022/02/18 15:21:20;;;;;;;7.35;1.98;;;;;;;;;;5079839;28;20032;-62
2022/02/18 15:23:46;;;;;;;8.95;2.15;;;;;;;;;;5072431;28;20083;-62
2022/02/18 15:26:13;;;;;;;10.55;2.15;;;;;;;;;;5070040;28;20028;-62
2022/02/18 15:28:43;;;;;;;6.10;1.55;;;;;;;;;;5067789;28;20039;-62
2022/02/18 15:34:35;;;;;;;9.82;2.00;;;;;;;;;;5060205;28;20075;-61
2022/02/18 15:36:55;;;;;;;8.93;1.58;;;;;;;;;;5048252;28;20025;-61
2022/02/18 15:42:10;;;;;;;9.05;1.65;;;;;;;;;;5048496;28;20079;-62
2022/02/18 15:44:37;;;;;;;7.35;1.70;;;;;;;;;;5062704;28;20029;-62
2022/02/18 15:47:04;;;;;;;9.35;2.75;;;;;;;;;;5070051;28;20021;-62
2022/02/18 15:49:30;;;;;;;11.35;2.03;;;;;;;;;;5075154;28;20025;-62
2022/02/18 15:52:01;;;;;;;10.52;2.10;;;;;;;;;;5068560;28;20486;-62
2022/02/18 15:54:27;;;;;;;6.90;2.28;;;;;;;;;;5068533;28;20048;-61
2022/02/18 15:56:53;;;;;;;11.27;2.53;;;;;;;;;;5069084;28;20082;-62
2022/02/18 15:59:19;;;;;;;48.67;4.30;;;;;;;;;;5071521;28;20036;-61
2022/02/18 16:01:51;;;;;;;37.55;3.63;;;;;;;;;;5067447;28;20128;-62
2022/02/18 16:04:24;;;;;;;28.00;3.92;;;;;;;;;;5067118;28;20025;-62
2022/02/18 16:06:50;;;;;;;22.85;3.35;;;;;;;;;;5068526;28;20024;-63
2022/02/18 16:09:17;;;;;;;9.75;2.33;;;;;;;;;;5068036;28;20032;-62
2022/02/18 16:11:43;;;;;;;19.92;2.53;;;;;;;;;;5066733;28;20098;-63
2022/02/18 16:14:09;;;;;;;16.80;2.67;;;;;;;;;;5068568;28;20774;-62
2022/02/18 16:16:36;;;;;;;16.70;2.78;;;;;;;;;;5067853;28;20029;-61
2022/02/18 16:19:02;;;;;;;16.38;3.03;;;;;;;;;;5079719;28;20020;-61
2022/02/18 16:21:28;;;;;;;12.52;3.00;;;;;;;;;;5081501;28;20032;-61
2022/02/18 16:23:57;;;;;;;18.33;2.80;;;;;;;;;;5080965;28;20024;-62
2022/02/18 16:26:26;;;;;;;17.42;3.47;;;;;;;;;;5077622;28;20557;-63
2022/02/18 16:28:53;;;;;;;15.02;2.45;;;;;;;;;;5070521;28;20039;-65
2022/02/18 16:31:20;;;;;;;14.25;2.95;;;;;;;;;;5069530;28;20540;-63
2022/02/18 16:33:46;;;;;;;24.92;3.55;;;;;;;;;;5061436;28;21288;-62
2022/02/18 16:36:13;;;;;;;16.98;3.22;;;;;;;;;;5068965;28;20048;-61
2022/02/18 16:38:39;;;;;;;13.75;2.70;;;;;;;;;;5071757;28;20504;-62
2022/02/18 16:41:05;;;;;;;16.95;3.65;;;;;;;;;;5071216;28;20127;-61
2022/02/18 16:43:31;;;;;;;15.50;3.05;;;;;;;;;;5071260;28;20028;-62
2022/02/18 16:45:58;;;;;;;23.90;4.30;;;;;;;;;;5071381;28;20131;-62
2022/02/18 16:48:24;;;;;;;18.55;3.20;;;;;;;;;;5083566;28;20099;-62
2022/02/18 16:50:50;;;;;;;14.93;3.08;;;;;;;;;;5083133;28;20029;-63
2022/02/18 16:53:16;;;;;;;16.98;3.00;;;;;;;;;;5070267;28;20471;-63
2022/02/18 16:55:42;;;;;;;12.85;3.20;;;;;;;;;;5071650;28;20111;-62
2022/02/18 16:58:08;;;;;;;31.17;10.32;;;;;;;;;;5069922;28;20127;-63
2022/02/18 17:00:35;;;;;;;95.00;39.13;;;;;;;;;;5058911;28;20052;-63
2022/02/18 17:03:01;;;;;;;103.00;41.20;;;;;;;;;;5071396;28;20017;-62
2022/02/18 17:05:27;;;;;;;107.53;44.65;;;;;;;;;;5068250;28;20699;-62
2022/02/18 17:07:54;;;;;;;206.60;97.13;;;;;;;;;;5072032;28;20379;-63
2022/02/18 17:10:20;;;;;;;208.18;89.82;;;;;;;;;;5092125;28;20012;-64
2022/02/18 17:12:47;;;;;;;208.38;89.18;;;;;;;;;;5072056;28;20036;-63
2022/02/18 17:15:14;;;;;;;190.43;85.20;;;;;;;;;;5059379;28;20023;-65
2022/02/18 17:17:44;;;;;;;193.75;84.28;;;;;;;;;;5067868;28;20082;-63
2022/02/18 17:20:11;;;;;;;180.90;81.63;;;;;;;;;;5067446;28;20024;-61
2022/02/18 17:22:38;;;;;;;174.77;77.95;;;;;;;;;;5064548;28;20802;-62
2022/02/18 17:25:05;;;;;;;190.63;82.47;;;;;;;;;;5070858;28;20102;-61
2022/02/18 17:27:31;;;;;;;177.52;78.35;;;;;;;;;;5069426;28;20033;-60
2022/02/18 17:29:57;;;;;;;165.77;73.97;;;;;;;;;;5070993;28;20116;-61
2022/02/18 17:32:23;;;;;;;167.73;76.50;;;;;;;;;;5069265;28;20633;-61
2022/02/18 17:34:50;;;;;;;160.00;72.15;;;;;;;;;;5071103;28;20032;-60
2022/02/18 17:37:16;;;;;;;179.63;73.50;;;;;;;;;;5070370;28;20568;-61
2022/02/18 17:39:42;;;;;;;167.95;74.43;;;;;;;;;;5070494;28;20103;-61
2022/02/18 17:42:10;;;;;;;146.75;68.68;;;;;;;;;;5070283;28;20115;-61
2022/02/18 17:44:36;;;;;;;159.98;70.25;;;;;;;;;;5070433;28;20028;-62
2022/02/18 17:47:03;;;;;;;149.23;67.13;;;;;;;;;;5063682;28;20067;-61
2022/02/18 17:49:29;;;;;;;146.32;64.70;;;;;;;;;;5070447;28;20036;-61
2022/02/18 17:51:55;;;;;;;146.23;64.78;;;;;;;;;;5070382;28;20553;-60
2022/02/18 17:54:23;;;;;;;139.30;61.95;;;;;;;;;;5069978;28;20023;-60
2022/02/18 17:56:49;;;;;;;142.63;63.67;;;;;;;;;;5070123;28;20454;-60
2022/02/18 17:59:15;;;;;;;136.20;61.67;;;;;;;;;;5069654;28;20102;-60
2022/02/18 18:01:41;;;;;;;135.95;61.08;;;;;;;;;;5069712;28;20086;-62
2022/02/18 18:04:07;;;;;;;118.97;56.58;;;;;;;;;;5072125;28;20029;-60
2022/02/18 18:06:33;;;;;;;119.53;53.08;;;;;;;;;;5067646;28;20029;-62
2022/02/18 18:08:59;;;;;;;114.55;52.75;;;;;;;;;;5067592;28;20090;-62
2022/02/18 18:11:25;;;;;;;116.55;54.55;;;;;;;;;;5069591;28;20534;-62
2022/02/18 18:13:51;;;;;;;121.57;51.42;;;;;;;;;;5069620;28;20119;-62
2022/02/18 18:16:20;;;;;;;114.57;49.35;;;;;;;;;;5069866;28;20135;-61
2022/02/18 18:18:46;;;;;;;112.25;50.03;;;;;;;;;;5069603;28;20032;-61
2022/02/18 18:21:12;;;;;;;103.68;47.42;;;;;;;;;;5069448;28;20108;-61
2022/02/18 18:23:39;;;;;;;110.72;48.58;;;;;;;;;;5060832;28;20124;-63
2022/02/18 18:26:05;;;;;;;98.03;46.47;;;;;;;;;;5070431;28;20024;-62
2022/02/18 18:28:32;;;;;;;103.35;44.83;;;;;;;;;;5069869;28;20157;-61
2022/02/18 18:30:58;;;;;;;94.75;44.40;;;;;;;;;;5058937;28;20147;-61
2022/02/18 18:33:24;;;;;;;97.40;42.95;;;;;;;;;;5066992;28;20474;-61
2022/02/18 18:35:52;;;;;;;102.75;42.78;;;;;;;;;;5069343;28;20505;-61
2022/02/18 18:38:19;;;;;;;92.35;42.92;;;;;;;;;;5061931;28;20068;-61
2022/02/18 18:40:45;;;;;;;92.65;42.55;;;;;;;;;;5065688;28;20443;-62
2022/02/18 18:43:11;;;;;;;98.50;39.85;;;;;;;;;;5068413;28;20055;-62
2022/02/18 18:45:38;;;;;;;86.25;38.47;;;;;;;;;;5068686;28;20033;-60
2022/02/18 18:48:04;;;;;;;88.75;38.70;;;;;;;;;;5078604;28;20099;-61
2022/02/18 18:50:30;;;;;;;88.25;38.33;;;;;;;;;;5076089;28;20099;-62
2022/02/18 18:52:56;;;;;;;83.53;37.30;;;;;;;;;;5067971;28;20112;-62
2022/02/18 18:55:23;;;;;;;85.10;36.63;;;;;;;;;;5067212;28;20628;-61
2022/02/18 18:57:50;;;;;;;85.90;35.85;;;;;;;;;;5068214;28;20048;-61
2022/02/18 19:00:16;;;;;;;83.38;33.80;;;;;;;;;;5067448;28;20452;-61
2022/02/18 19:02:42;;;;;;;69.35;31.92;;;;;;;;;;5061110;28;20173;-62
2022/02/18 19:05:10;;;;;;;70.07;31.13;;;;;;;;;;5070647;28;20713;-62
2022/02/18 19:07:38;;;;;;;69.18;30.83;;;;;;;;;;5067301;28;20027;-62
2022/02/18 19:10:04;;;;;;;71.43;31.17;;;;;;;;;;5067525;28;20020;-62
2022/02/18 19:12:34;;;;;;;70.30;30.23;;;;;;;;;;5067490;28;20397;-62
2022/02/18 19:15:00;;;;;;;64.20;29.07;;;;;;;;;;5067525;28;20025;-61
2022/02/18 19:17:26;;;;;;;59.10;27.10;;;;;;;;;;5065783;28;20034;-62
2022/02/18 19:19:52;;;;;;;61.55;27.02;;;;;;;;;;5067734;28;20169;-62
2022/02/18 19:22:19;;;;;;;62.67;26.48;;;;;;;;;;5066807;28;20151;-61
2022/02/18 19:24:45;;;;;;;60.60;25.50;;;;;;;;;;5050675;28;20497;-62
2022/02/18 19:27:11;;;;;;;60.65;26.33;;;;;;;;;;5063831;28;20466;-62
2022/02/18 19:29:37;;;;;;;59.10;23.88;;;;;;;;;;5067596;28;20186;-62
2022/02/18 19:32:03;;;;;;;56.25;24.30;;;;;;;;;;5066811;28;20143;-62
2022/02/18 19:34:29;;;;;;;57.03;24.98;;;;;;;;;;5067159;28;20068;-62
2022/02/18 19:36:55;;;;;;;62.67;23.98;;;;;;;;;;5066944;28;20020;-62
2022/02/18 19:39:21;;;;;;;55.65;23.77;;;;;;;;;;5067158;28;20383;-62
2022/02/18 19:41:47;;;;;;;53.58;22.52;;;;;;;;;;5066541;28;20454;-61
2022/02/18 19:44:14;;;;;;;47.90;21.85;;;;;;;;;;5066924;28;20020;-61
2022/02/18 19:46:40;;;;;;;46.85;20.25;;;;;;;;;;5066824;28;20056;-61